createdAt,value
2023-03-15T00:01:30.555Z,68.30
2023-03-15T00:04:01.050Z,68.20
2023-03-15T00:06:30.033Z,68.10
2023-03-15T00:08:58.867Z,68.00
2023-03-15T00:11:27.848Z,68.10
2023-03-15T00:13:56.848Z,68.20
2023-03-15T00:16:27.203Z,68.10
2023-03-15T00:18:56.777Z,68.10
2023-03-15T00:21:29.707Z,68.10
2023-03-15T00:23:58.686Z,68.40
2023-03-15T00:26:27.821Z,68.30
2023-03-15T00:28:56.836Z,68.10
2023-03-15T00:31:26.991Z,67.80
2023-03-15T00:33:55.736Z,67.50
2023-03-15T00:36:28.726Z,67.60
2023-03-15T00:38:58.156Z,67.70
2023-03-15T00:41:26.948Z,67.40
2023-03-15T00:43:55.986Z,67.40
2023-03-15T00:46:24.884Z,67.60
2023-03-15T00:48:53.910Z,67.70
2023-03-15T00:51:24.808Z,67.80
2023-03-15T00:53:56.067Z,67.70
2023-03-15T00:56:27.630Z,67.60
2023-03-15T00:58:58.047Z,67.70
2023-03-15T01:01:28.378Z,67.70
2023-03-15T01:03:58.069Z,67.80
2023-03-15T01:06:29.358Z,67.70
2023-03-15T01:09:01.670Z,67.60
2023-03-15T01:11:30.840Z,67.70
2023-03-15T01:14:00.784Z,67.90
2023-03-15T01:16:30.181Z,67.80
2023-03-15T01:18:59.148Z,68.00
2023-03-15T01:21:28.344Z,68.20
2023-03-15T01:23:58.764Z,68.30
2023-03-15T01:26:27.692Z,68.40
2023-03-15T01:28:56.578Z,68.40
2023-03-15T01:31:26.914Z,68.50
2023-03-15T01:33:56.934Z,68.60
2023-03-15T01:36:26.142Z,68.50
2023-03-15T01:38:55.539Z,68.40
2023-03-15T01:41:34.270Z,68.40
2023-03-15T01:44:03.148Z,68.20
2023-03-15T01:46:34.573Z,68.20
2023-03-15T01:49:24.542Z,68.20
2023-03-15T01:51:56.477Z,68.20
2023-03-15T01:54:29.655Z,68.20
2023-03-15T01:57:04.106Z,68.30
2023-03-15T01:59:36.663Z,68.30
2023-03-15T02:02:06.969Z,68.30
2023-03-15T02:04:39.784Z,68.50
2023-03-15T02:07:11.042Z,68.40
2023-03-15T02:09:48.540Z,68.50
2023-03-15T02:12:20.124Z,68.60
2023-03-15T02:14:54.003Z,68.60
2023-03-15T02:17:33.566Z,68.60
2023-03-15T02:20:09.654Z,68.70
2023-03-15T02:22:48.126Z,68.60
2023-03-15T02:25:26.923Z,68.60
2023-03-15T02:27:58.862Z,68.80
2023-03-15T02:30:28.157Z,68.80
2023-03-15T02:32:58.678Z,68.80
2023-03-15T02:35:31.090Z,69.00
2023-03-15T02:38:02.605Z,69.00
2023-03-15T02:40:32.310Z,69.10
2023-03-15T02:43:08.047Z,69.10
2023-03-15T02:45:38.942Z,69.10
2023-03-15T02:48:09.646Z,69.00
2023-03-15T02:50:39.808Z,69.10
2023-03-15T02:53:09.079Z,69.10
2023-03-15T02:55:38.074Z,68.90
2023-03-15T02:58:08.748Z,68.80
2023-03-15T03:00:37.954Z,68.80
2023-03-15T03:03:08.817Z,68.80
2023-03-15T03:05:37.842Z,68.80
2023-03-15T03:08:07.529Z,68.50
2023-03-15T03:10:37.776Z,68.40
2023-03-15T03:13:08.094Z,68.40
2023-03-15T03:15:40.168Z,68.60
2023-03-15T03:18:09.094Z,68.70
2023-03-15T03:20:38.273Z,68.60
2023-03-15T03:23:08.215Z,68.50
2023-03-15T03:25:37.558Z,68.50
2023-03-15T03:28:08.012Z,68.50
2023-03-15T03:30:37.074Z,68.30
2023-03-15T03:33:06.049Z,68.10
2023-03-15T03:35:35.031Z,67.90
2023-03-15T03:38:04.175Z,67.90
2023-03-15T03:40:38.557Z,68.70
2023-03-15T03:43:10.546Z,68.00
2023-03-15T03:45:39.707Z,67.80
2023-03-15T03:48:10.459Z,67.80
2023-03-15T03:50:39.376Z,67.80
2023-03-15T03:53:08.359Z,68.00
2023-03-15T03:55:39.189Z,68.10
2023-03-15T03:58:08.053Z,68.30
2023-03-15T04:00:43.814Z,68.30
2023-03-15T04:03:13.298Z,68.30
2023-03-15T04:05:46.317Z,68.10
2023-03-15T04:08:19.469Z,68.10
2023-03-15T04:10:51.474Z,68.10
2023-03-15T04:13:21.082Z,68.00
2023-03-15T04:15:51.983Z,67.90
2023-03-15T04:18:21.673Z,67.90
2023-03-15T04:20:54.705Z,67.90
2023-03-15T04:23:25.101Z,67.90
2023-03-15T04:26:17.593Z,67.90
2023-03-15T04:29:24.945Z,68.00
2023-03-15T04:32:05.580Z,68.10
2023-03-15T04:34:51.265Z,68.00
2023-03-15T04:37:42.451Z,68.00
2023-03-15T04:40:30.736Z,68.00
2023-03-15T04:43:15.026Z,68.00
2023-03-15T04:45:55.857Z,68.90
2023-03-15T04:48:46.454Z,68.00
2023-03-15T04:51:30.479Z,68.10
2023-03-15T04:54:17.867Z,68.10
2023-03-15T04:56:59.195Z,68.10
2023-03-15T04:59:57.463Z,68.10
2023-03-15T05:02:55.584Z,68.20
2023-03-15T05:05:47.358Z,68.10
2023-03-15T05:08:45.343Z,68.30
2023-03-15T05:11:37.339Z,68.40
2023-03-15T05:14:41.842Z,68.40
2023-03-15T05:17:18.961Z,68.30
2023-03-15T05:20:11.354Z,68.30
2023-03-15T05:23:04.719Z,68.30
2023-03-15T05:25:42.109Z,68.00
2023-03-15T05:28:31.709Z,67.90
2023-03-15T05:31:19.865Z,68.00
2023-03-15T05:34:12.222Z,68.20
2023-03-15T05:37:00.572Z,68.30
2023-03-15T05:39:39.424Z,68.40
2023-03-15T05:42:25.931Z,68.40
2023-03-15T05:45:02.096Z,68.30
2023-03-15T05:47:45.107Z,68.30
2023-03-15T05:50:34.866Z,68.40
2023-03-15T05:53:23.012Z,68.40
2023-03-15T05:56:08.780Z,68.30
2023-03-15T05:59:13.051Z,68.10
2023-03-15T06:02:08.478Z,68.10
2023-03-15T06:04:46.625Z,67.90
2023-03-15T06:07:21.148Z,67.80
2023-03-15T06:09:52.064Z,68.00
2023-03-15T06:12:22.471Z,68.20
2023-03-15T06:14:52.222Z,68.30
2023-03-15T06:17:21.196Z,68.30
2023-03-15T06:19:50.937Z,68.10
2023-03-15T06:22:20.692Z,67.80
2023-03-15T06:24:56.245Z,68.00
2023-03-15T06:27:28.020Z,68.20
2023-03-15T06:29:58.677Z,68.10
2023-03-15T06:32:28.048Z,67.90
2023-03-15T06:34:57.481Z,68.00
2023-03-15T06:37:35.003Z,68.20
2023-03-15T06:40:08.020Z,68.20
2023-03-15T06:42:39.215Z,68.60
2023-03-15T06:45:11.028Z,68.20
2023-03-15T06:47:40.275Z,68.20
2023-03-15T06:50:10.979Z,68.10
2023-03-15T06:52:40.058Z,68.20
2023-03-15T06:55:12.443Z,68.00
2023-03-15T06:57:44.784Z,67.80
2023-03-15T07:00:17.116Z,68.20
2023-03-15T07:02:46.524Z,67.80
2023-03-15T07:05:15.888Z,67.50
2023-03-15T07:07:44.948Z,67.40
2023-03-15T07:10:14.090Z,68.30
2023-03-15T07:12:44.409Z,67.10
2023-03-15T07:15:15.524Z,67.20
2023-03-15T07:17:45.991Z,67.00
2023-03-15T07:20:15.284Z,66.50
2023-03-15T07:22:45.672Z,66.70
2023-03-15T07:25:14.952Z,66.90
2023-03-15T07:27:45.308Z,67.10
2023-03-15T07:30:15.128Z,67.20
2023-03-15T07:32:44.339Z,67.00
2023-03-15T07:35:14.161Z,66.30
2023-03-15T07:37:44.629Z,66.50
2023-03-15T07:40:16.217Z,66.90
2023-03-15T07:42:47.297Z,66.80
2023-03-15T07:45:16.353Z,65.50
2023-03-15T07:47:45.618Z,63.80
2023-03-15T07:50:17.159Z,62.20
2023-03-15T07:52:46.336Z,61.00
2023-03-15T07:55:15.766Z,60.60
2023-03-15T07:57:47.741Z,60.90
2023-03-15T08:00:19.759Z,60.40
2023-03-15T08:02:48.856Z,59.70
2023-03-15T08:05:19.178Z,59.60
2023-03-15T08:07:49.595Z,60.50
2023-03-15T08:10:19.251Z,61.50
2023-03-15T08:12:49.916Z,61.70
2023-03-15T08:15:20.416Z,61.70
2023-03-15T08:17:50.316Z,60.80
2023-03-15T08:20:19.648Z,59.10
2023-03-15T08:22:50.087Z,57.60
2023-03-15T08:25:21.853Z,56.70
2023-03-15T08:27:52.842Z,56.60
2023-03-15T08:30:22.503Z,55.10
2023-03-15T08:32:52.594Z,55.00
2023-03-15T08:35:23.213Z,54.40
2023-03-15T08:37:52.624Z,53.30
2023-03-15T08:40:24.777Z,52.50
2023-03-15T08:42:56.260Z,51.50
2023-03-15T08:45:26.227Z,51.40
2023-03-15T08:47:59.308Z,51.00
2023-03-15T08:50:31.644Z,51.20
2023-03-15T08:53:00.774Z,50.90
2023-03-15T08:55:29.820Z,50.80
2023-03-15T08:58:01.689Z,51.40
2023-03-15T09:00:31.139Z,52.60
2023-03-15T09:03:00.091Z,52.60
2023-03-15T09:05:29.057Z,52.60
2023-03-15T09:07:58.709Z,53.20
2023-03-15T09:10:27.674Z,54.10
2023-03-15T09:12:56.768Z,54.70
2023-03-15T09:15:27.267Z,55.10
2023-03-15T09:17:56.247Z,56.00
2023-03-15T09:20:28.266Z,56.40
2023-03-15T09:22:59.032Z,56.60
2023-03-15T09:25:28.221Z,57.30
2023-03-15T09:27:57.179Z,57.60
2023-03-15T09:30:28.977Z,58.10
2023-03-15T09:32:58.152Z,58.30
2023-03-15T09:35:27.107Z,58.40
2023-03-15T09:37:56.442Z,58.10
2023-03-15T09:40:29.121Z,58.30
2023-03-15T09:43:05.483Z,58.60
2023-03-15T09:45:49.220Z,58.60
2023-03-15T09:48:25.085Z,58.80
2023-03-15T09:50:59.311Z,59.80
2023-03-15T09:53:32.981Z,59.30
2023-03-15T09:56:02.029Z,59.20
2023-03-15T09:58:34.733Z,59.10
2023-03-15T10:01:08.043Z,59.00
2023-03-15T10:03:48.876Z,59.80
2023-03-15T10:06:20.743Z,60.00
2023-03-15T10:08:58.567Z,60.60
2023-03-15T10:11:35.256Z,61.40
2023-03-15T10:14:21.430Z,60.50
2023-03-15T10:16:52.642Z,60.60
2023-03-15T10:19:29.986Z,60.00
2023-03-15T10:22:04.854Z,60.40
2023-03-15T10:24:40.346Z,60.30
2023-03-15T10:27:16.893Z,60.50
2023-03-15T10:29:46.859Z,61.00
2023-03-15T10:32:19.218Z,61.70
2023-03-15T10:34:51.247Z,61.70
2023-03-15T10:37:23.601Z,61.70
2023-03-15T10:39:57.268Z,61.80
2023-03-15T10:42:28.490Z,62.00
2023-03-15T10:44:57.598Z,62.10
2023-03-15T10:47:29.051Z,62.50
2023-03-15T10:49:59.951Z,62.80
2023-03-15T10:52:35.201Z,62.80
2023-03-15T10:55:08.465Z,63.00
2023-03-15T10:57:40.131Z,63.30
2023-03-15T11:00:26.934Z,63.50
2023-03-15T11:03:16.646Z,63.10
2023-03-15T11:05:48.248Z,63.10
2023-03-15T11:08:19.120Z,63.00
2023-03-15T11:10:56.134Z,63.00
2023-03-15T11:13:27.375Z,63.10
2023-03-15T11:16:03.715Z,63.90
2023-03-15T11:18:44.207Z,63.90
2023-03-15T11:21:15.791Z,63.90
2023-03-15T11:23:47.659Z,65.30
2023-03-15T11:26:31.475Z,65.50
2023-03-15T11:29:05.185Z,65.00
2023-03-15T11:31:36.862Z,64.60
2023-03-15T11:34:13.590Z,64.30
2023-03-15T11:36:49.116Z,64.50
2023-03-15T11:39:33.913Z,64.40
2023-03-15T11:42:11.152Z,64.80
2023-03-15T11:44:44.803Z,64.50
2023-03-15T11:47:23.573Z,64.30
2023-03-15T11:49:56.086Z,64.30
2023-03-15T11:52:28.149Z,64.30
2023-03-15T11:54:59.559Z,65.10
2023-03-15T11:57:43.659Z,65.50
2023-03-15T12:00:45.357Z,65.10
2023-03-15T12:03:34.479Z,65.50
2023-03-15T12:06:39.413Z,64.40
2023-03-15T12:09:49.218Z,64.90
2023-03-15T12:12:41.439Z,63.90
2023-03-15T12:15:43.877Z,62.90
2023-03-15T12:18:23.110Z,62.80
2023-03-15T12:20:59.563Z,63.20
2023-03-15T12:23:39.196Z,63.40
2023-03-15T12:26:12.718Z,63.20
2023-03-15T12:28:50.530Z,63.20
2023-03-15T12:31:20.537Z,62.90
2023-03-15T12:33:52.549Z,63.10
2023-03-15T12:36:32.896Z,63.90
2023-03-15T12:39:21.903Z,64.60
2023-03-15T12:41:52.025Z,63.60
2023-03-15T12:44:40.221Z,63.50
2023-03-15T12:47:10.174Z,63.50
2023-03-15T12:49:42.748Z,62.90
2023-03-15T12:52:35.696Z,62.20
2023-03-15T12:55:15.897Z,62.50
2023-03-15T12:57:50.703Z,62.40
2023-03-15T13:00:23.527Z,62.50
2023-03-15T13:03:01.965Z,62.60
2023-03-15T13:05:36.145Z,62.80
2023-03-15T13:08:10.483Z,62.60
2023-03-15T13:10:53.489Z,64.10
2023-03-15T13:13:34.164Z,63.20
2023-03-15T13:16:17.761Z,62.10
2023-03-15T13:18:55.973Z,62.60
2023-03-15T13:21:29.400Z,62.30
2023-03-15T13:24:00.058Z,62.60
2023-03-15T13:26:52.865Z,61.90
2023-03-15T13:29:27.705Z,62.20
2023-03-15T13:32:07.981Z,62.20
2023-03-15T13:34:37.242Z,61.90
2023-03-15T13:37:14.296Z,62.30
2023-03-15T13:39:56.146Z,61.00
2023-03-15T13:42:27.325Z,61.00
2023-03-15T13:45:13.656Z,60.40
2023-03-15T13:47:44.282Z,59.80
2023-03-15T13:50:16.353Z,59.90
2023-03-15T13:52:46.006Z,60.10
2023-03-15T13:55:16.457Z,60.50
2023-03-15T13:57:46.836Z,60.00
2023-03-15T14:00:19.127Z,60.10
2023-03-15T14:02:52.646Z,60.10
2023-03-15T14:05:28.180Z,59.80
2023-03-15T14:08:02.692Z,59.80
2023-03-15T14:10:33.963Z,59.80
2023-03-15T14:13:24.111Z,59.80
2023-03-15T14:15:59.012Z,59.50
2023-03-15T14:18:32.659Z,59.40
2023-03-15T14:21:04.888Z,59.30
2023-03-15T14:23:37.203Z,59.70
2023-03-15T14:26:13.946Z,59.80
2023-03-15T14:28:49.072Z,59.70
2023-03-15T14:31:24.206Z,60.10
2023-03-15T14:33:55.655Z,60.70
2023-03-15T14:36:30.665Z,60.70
2023-03-15T14:39:00.666Z,60.50
2023-03-15T14:41:34.283Z,60.40
2023-03-15T14:44:04.653Z,60.30
2023-03-15T14:46:33.635Z,60.50
2023-03-15T14:49:02.838Z,60.90
2023-03-15T14:51:33.155Z,61.30
2023-03-15T14:54:02.371Z,61.30
2023-03-15T14:56:31.411Z,61.30
2023-03-15T14:59:02.993Z,61.30
2023-03-15T15:01:34.044Z,60.70
2023-03-15T15:04:04.778Z,60.70
2023-03-15T15:06:36.663Z,60.70
2023-03-15T15:09:06.804Z,61.40
2023-03-15T15:11:36.292Z,61.50
2023-03-15T15:14:12.293Z,60.80
2023-03-15T15:16:43.286Z,60.40
2023-03-15T15:19:13.080Z,60.60
2023-03-15T15:21:43.202Z,60.30
2023-03-15T15:24:16.488Z,60.20
2023-03-15T15:26:45.807Z,60.20
2023-03-15T15:29:16.985Z,60.70
2023-03-15T15:31:47.419Z,60.70
2023-03-15T15:34:16.916Z,60.80
2023-03-15T15:36:47.069Z,60.80
2023-03-15T15:39:23.082Z,60.30
2023-03-15T15:41:51.973Z,60.00
2023-03-15T15:44:22.423Z,60.10
2023-03-15T15:46:53.123Z,60.30
2023-03-15T15:49:22.405Z,60.60
2023-03-15T15:51:51.958Z,61.00
2023-03-15T15:54:23.891Z,61.30
2023-03-15T15:56:55.137Z,61.80
2023-03-15T15:59:25.596Z,61.90
2023-03-15T16:02:01.238Z,62.00
2023-03-15T16:04:32.597Z,62.60
2023-03-15T16:07:03.511Z,62.70
2023-03-15T16:09:35.769Z,62.80
2023-03-15T16:12:12.295Z,62.90
2023-03-15T16:14:41.637Z,62.90
2023-03-15T16:17:14.666Z,63.20
2023-03-15T16:19:43.605Z,63.50
2023-03-15T16:22:12.717Z,63.50
2023-03-15T16:24:45.256Z,63.80
2023-03-15T16:27:16.949Z,64.10
2023-03-15T16:29:48.298Z,64.50
2023-03-15T16:32:32.942Z,64.30
2023-03-15T16:35:15.313Z,64.80
2023-03-15T16:37:44.976Z,63.80
2023-03-15T16:40:21.305Z,63.80
2023-03-15T16:42:50.668Z,64.00
2023-03-15T16:45:19.777Z,64.00
2023-03-15T16:47:50.498Z,64.30
2023-03-15T16:50:20.595Z,64.80
2023-03-15T16:52:53.122Z,65.00
2023-03-15T16:55:26.007Z,65.30
2023-03-15T16:57:55.089Z,65.30
2023-03-15T17:00:25.656Z,65.30
2023-03-15T17:02:59.822Z,65.20
2023-03-15T17:05:28.986Z,65.30
2023-03-15T17:07:58.331Z,65.10
2023-03-15T17:10:30.975Z,65.20
2023-03-15T17:13:02.061Z,65.30
2023-03-15T17:15:32.826Z,65.50
2023-03-15T17:18:03.236Z,65.70
2023-03-15T17:20:34.136Z,65.70
2023-03-15T17:23:05.223Z,65.70
2023-03-15T17:25:34.908Z,65.80
2023-03-15T17:28:04.676Z,66.00
2023-03-15T17:30:35.462Z,66.10
2023-03-15T17:33:06.558Z,66.30
2023-03-15T17:35:38.399Z,66.30
2023-03-15T17:38:14.024Z,66.40
2023-03-15T17:40:43.548Z,66.40
2023-03-15T17:43:14.730Z,66.30
2023-03-15T17:45:44.643Z,66.20
2023-03-15T17:48:15.377Z,66.30
2023-03-15T17:50:45.409Z,66.30
2023-03-15T17:53:17.430Z,66.40
2023-03-15T17:55:47.814Z,66.50
2023-03-15T17:58:20.136Z,66.50
2023-03-15T18:00:50.799Z,66.50
2023-03-15T18:03:21.790Z,66.60
2023-03-15T18:05:51.361Z,66.60
2023-03-15T18:08:22.239Z,66.50
2023-03-15T18:10:52.474Z,66.50
2023-03-15T18:13:23.249Z,66.50
2023-03-15T18:15:52.703Z,66.60
2023-03-15T18:18:22.990Z,66.70
2023-03-15T18:20:51.913Z,66.70
2023-03-15T18:23:20.817Z,66.80
2023-03-15T18:25:49.662Z,66.80
2023-03-15T18:28:18.633Z,66.80
2023-03-15T18:30:47.941Z,67.00
2023-03-15T18:33:17.360Z,67.10
2023-03-15T18:35:47.702Z,67.20
2023-03-15T18:38:17.250Z,67.40
2023-03-15T18:40:46.236Z,67.50
2023-03-15T18:43:16.070Z,67.50
2023-03-15T18:45:45.055Z,67.60
2023-03-15T18:48:14.068Z,67.50
2023-03-15T18:50:43.934Z,67.40
2023-03-15T18:53:14.895Z,67.30
2023-03-15T18:55:44.590Z,67.20
2023-03-15T18:58:14.074Z,67.20
2023-03-15T19:00:43.381Z,67.20
2023-03-15T19:03:13.259Z,67.20
2023-03-15T19:05:42.267Z,67.30
2023-03-15T19:08:11.216Z,67.30
2023-03-15T19:10:42.473Z,67.10
2023-03-15T19:13:11.472Z,67.10
2023-03-15T19:15:40.667Z,67.10
2023-03-15T19:18:09.626Z,67.10
2023-03-15T19:20:38.684Z,67.10
2023-03-15T19:23:07.867Z,67.10
2023-03-15T19:25:37.062Z,67.00
2023-03-15T19:28:07.586Z,67.00
2023-03-15T19:30:36.599Z,66.90
2023-03-15T19:33:05.696Z,66.90
2023-03-15T19:35:34.700Z,66.80
2023-03-15T19:38:04.040Z,66.80
2023-03-15T19:40:33.175Z,66.90
2023-03-15T19:43:02.210Z,67.00
2023-03-15T19:45:32.491Z,67.10
2023-03-15T19:48:01.537Z,67.20
2023-03-15T19:50:32.457Z,67.40
2023-03-15T19:53:01.621Z,67.40
2023-03-15T19:55:31.808Z,67.30
2023-03-15T19:58:00.904Z,67.30
2023-03-15T20:00:30.090Z,67.20
2023-03-15T20:03:00.854Z,67.20
2023-03-15T20:05:29.868Z,67.30
2023-03-15T20:07:58.836Z,67.20
2023-03-15T20:10:27.865Z,67.00
2023-03-15T20:12:58.944Z,67.10
2023-03-15T20:15:29.476Z,67.10
2023-03-15T20:17:59.835Z,67.10
2023-03-15T20:20:28.841Z,67.10
2023-03-15T20:22:57.784Z,67.10
2023-03-15T20:25:26.528Z,67.20
2023-03-15T20:27:55.911Z,67.00
2023-03-15T20:30:25.243Z,66.90
2023-03-15T20:32:54.592Z,66.90
2023-03-15T20:35:24.810Z,67.00
2023-03-15T20:37:53.962Z,67.00
2023-03-15T20:40:23.759Z,66.90
2023-03-15T20:42:53.119Z,67.10
2023-03-15T20:45:21.946Z,67.10
2023-03-15T20:47:50.877Z,67.10
2023-03-15T20:50:20.002Z,67.00
2023-03-15T20:52:50.468Z,67.00
2023-03-15T20:55:19.649Z,66.80
2023-03-15T20:57:48.602Z,66.60
2023-03-15T21:00:19.883Z,66.60
2023-03-15T21:02:49.094Z,66.60
2023-03-15T21:05:18.892Z,66.60
2023-03-15T21:07:48.103Z,66.60
2023-03-15T21:10:18.577Z,66.60
2023-03-15T21:12:47.772Z,66.60
2023-03-15T21:15:17.922Z,66.50
2023-03-15T21:17:49.094Z,66.50
2023-03-15T21:20:18.901Z,66.70
2023-03-15T21:22:47.948Z,66.70
2023-03-15T21:25:18.780Z,66.70
2023-03-15T21:27:47.574Z,66.80
2023-03-15T21:30:16.720Z,66.80
2023-03-15T21:32:45.646Z,67.00
2023-03-15T21:35:17.063Z,67.20
2023-03-15T21:37:46.275Z,67.60
2023-03-15T21:40:16.031Z,67.70
2023-03-15T21:42:47.775Z,67.80
2023-03-15T21:45:17.140Z,67.80
2023-03-15T21:47:47.078Z,68.00
2023-03-15T21:50:16.265Z,68.00
2023-03-15T21:52:45.850Z,67.90
2023-03-15T21:55:15.702Z,67.80
2023-03-15T21:57:46.280Z,67.90
2023-03-15T22:00:18.607Z,67.80
2023-03-15T22:02:48.175Z,67.70
2023-03-15T22:05:17.664Z,67.80
2023-03-15T22:07:46.654Z,68.00
2023-03-15T22:10:16.035Z,68.10
2023-03-15T22:12:46.947Z,68.20
2023-03-15T22:15:16.317Z,68.30
2023-03-15T22:17:46.028Z,68.20
2023-03-15T22:20:16.924Z,68.30
2023-03-15T22:22:46.630Z,68.40
2023-03-15T22:25:16.459Z,68.30
2023-03-15T22:27:46.794Z,68.10
2023-03-15T22:30:17.681Z,68.30
2023-03-15T22:32:46.869Z,68.30
2023-03-15T22:35:18.273Z,68.10
2023-03-15T22:37:49.217Z,68.10
2023-03-15T22:40:18.624Z,68.00
2023-03-15T22:42:51.305Z,68.00
2023-03-15T22:45:20.525Z,68.20
2023-03-15T22:47:50.276Z,68.40
2023-03-15T22:50:19.320Z,68.80
2023-03-15T22:52:48.346Z,68.80
2023-03-15T22:55:19.061Z,69.00
2023-03-15T22:57:49.466Z,69.00
2023-03-15T23:00:22.545Z,69.10
2023-03-15T23:02:51.678Z,69.00
2023-03-15T23:05:21.318Z,69.20
2023-03-15T23:07:50.357Z,69.00
2023-03-15T23:10:19.574Z,68.60
2023-03-15T23:12:51.011Z,68.40
2023-03-15T23:15:19.897Z,68.10
2023-03-15T23:17:48.876Z,68.40
2023-03-15T23:20:19.121Z,68.70
2023-03-15T23:22:48.576Z,68.80
2023-03-15T23:25:20.563Z,68.90
2023-03-15T23:27:51.908Z,69.00
2023-03-15T23:30:21.096Z,69.20
2023-03-15T23:32:52.178Z,69.30
2023-03-15T23:35:22.287Z,70.00
2023-03-15T23:37:53.246Z,69.30
2023-03-15T23:40:23.256Z,69.70
2023-03-15T23:42:58.701Z,68.90
2023-03-15T23:45:29.940Z,68.80
2023-03-15T23:47:59.237Z,68.60
2023-03-15T23:50:28.298Z,68.50
2023-03-15T23:52:57.721Z,68.40
2023-03-15T23:55:26.757Z,68.40
2023-03-15T23:57:56.924Z,68.50
